createdAt,value
2023-05-06T00:01:20.492Z,100459.22
2023-05-06T00:03:48.049Z,100447.66
2023-05-06T00:06:15.277Z,100452.25
2023-05-06T00:08:42.195Z,100456.38
2023-05-06T00:11:09.075Z,100456.00
2023-05-06T00:13:36.071Z,100448.22
2023-05-06T00:16:02.917Z,100448.22
2023-05-06T00:18:29.792Z,100447.00
2023-05-06T00:20:56.848Z,100446.38
2023-05-06T00:23:23.663Z,100452.75
2023-05-06T00:25:50.665Z,100451.56
2023-05-06T00:28:17.478Z,100442.94
2023-05-06T00:30:44.367Z,100445.09
2023-05-06T00:33:11.315Z,100443.97
2023-05-06T00:35:38.195Z,100440.94
2023-05-06T00:38:10.067Z,100434.91
2023-05-06T00:40:37.260Z,100432.06
2023-05-06T00:43:04.437Z,100436.94
2023-05-06T00:45:31.836Z,100431.81
2023-05-06T00:47:59.439Z,100427.75
2023-05-06T00:50:31.411Z,100422.44
2023-05-06T00:52:59.559Z,100427.69
2023-05-06T00:55:27.511Z,100428.62
2023-05-06T00:57:54.990Z,100420.97
2023-05-06T01:00:21.955Z,100425.25
2023-05-06T01:02:49.671Z,100418.12
2023-05-06T01:05:18.412Z,100426.84
2023-05-06T01:08:11.245Z,100428.69
2023-05-06T01:10:53.777Z,100431.19
2023-05-06T01:13:45.568Z,100428.66
2023-05-06T01:16:14.662Z,100432.56
2023-05-06T01:18:43.752Z,100426.19
2023-05-06T01:21:12.916Z,100438.44
2023-05-06T01:23:52.739Z,100425.22
2023-05-06T01:26:19.473Z,100434.41
2023-05-06T01:28:46.281Z,100436.19
2023-05-06T01:31:17.523Z,100431.53
2023-05-06T01:33:54.404Z,100438.53
2023-05-06T01:37:02.767Z,100437.56
2023-05-06T01:39:32.291Z,100441.75
2023-05-06T01:42:02.403Z,100442.84
2023-05-06T01:44:33.639Z,100445.34
2023-05-06T01:47:01.642Z,100449.63
2023-05-06T01:49:30.112Z,100456.97
2023-05-06T01:51:58.082Z,100442.94
2023-05-06T01:54:24.946Z,100436.81
2023-05-06T01:56:51.748Z,100441.00
2023-05-06T01:59:18.592Z,100440.03
2023-05-06T02:01:45.667Z,100441.16
2023-05-06T02:04:12.523Z,100435.28
2023-05-06T02:06:39.365Z,100433.75
2023-05-06T02:09:06.467Z,100428.41
2023-05-06T02:11:33.301Z,100424.16
2023-05-06T02:14:00.214Z,100430.25
2023-05-06T02:16:29.874Z,100427.37
2023-05-06T02:18:56.769Z,100421.66
2023-05-06T02:21:24.044Z,100426.81
2023-05-06T02:23:50.988Z,100427.78
2023-05-06T02:26:17.853Z,100424.28
2023-05-06T02:28:44.718Z,100421.53
2023-05-06T02:31:17.829Z,100431.19
2023-05-06T02:33:46.098Z,100421.53
2023-05-06T02:36:12.935Z,100421.38
2023-05-06T02:38:39.762Z,100424.91
2023-05-06T02:41:06.655Z,100435.91
2023-05-06T02:43:33.540Z,100431.28
2023-05-06T02:46:00.497Z,100433.81
2023-05-06T02:48:27.407Z,100424.91
2023-05-06T02:50:54.259Z,100427.72
2023-05-06T02:53:21.202Z,100417.03
2023-05-06T02:55:48.081Z,100424.38
2023-05-06T02:58:14.882Z,100426.06
2023-05-06T03:00:41.705Z,100438.62
2023-05-06T03:03:10.129Z,100435.09
2023-05-06T03:05:36.986Z,100448.31
2023-05-06T03:08:04.073Z,100451.22
2023-05-06T03:10:31.129Z,100449.34
2023-05-06T03:12:57.944Z,100442.97
2023-05-06T03:15:24.851Z,100439.72
2023-05-06T03:17:51.874Z,100448.50
2023-05-06T03:20:19.003Z,100439.63
2023-05-06T03:22:45.926Z,100440.87
2023-05-06T03:25:12.879Z,100435.44
2023-05-06T03:27:39.768Z,100431.81
2023-05-06T03:30:07.172Z,100433.75
2023-05-06T03:32:34.275Z,100432.84
2023-05-06T03:35:01.097Z,100441.56
2023-05-06T03:37:27.900Z,100440.16
2023-05-06T03:39:54.727Z,100443.78
2023-05-06T03:42:21.800Z,100444.72
2023-05-06T03:44:48.610Z,100443.63
2023-05-06T03:47:15.540Z,100442.22
2023-05-06T03:49:42.345Z,100437.03
2023-05-06T03:52:10.633Z,100439.16
2023-05-06T03:54:37.478Z,100442.19
2023-05-06T03:57:04.378Z,100445.91
2023-05-06T03:59:31.299Z,100440.84
2023-05-06T04:01:58.144Z,100435.44
2023-05-06T04:04:27.466Z,100438.16
2023-05-06T04:06:54.416Z,100437.00
2023-05-06T04:09:21.199Z,100438.31
2023-05-06T04:11:48.000Z,100442.69
2023-05-06T04:14:14.828Z,100444.16
2023-05-06T04:16:41.783Z,100450.41
2023-05-06T04:19:09.410Z,100452.28
2023-05-06T04:21:36.229Z,100455.78
2023-05-06T04:24:03.098Z,100453.00
2023-05-06T04:26:29.921Z,100456.41
2023-05-06T04:28:56.727Z,100444.91
2023-05-06T04:31:24.188Z,100447.25
2023-05-06T04:33:51.046Z,100444.31
2023-05-06T04:36:19.061Z,100441.13
2023-05-06T04:38:47.441Z,100434.16
2023-05-06T04:41:14.398Z,100448.53
2023-05-06T04:43:41.790Z,100439.25
2023-05-06T04:46:08.727Z,100443.75
2023-05-06T04:48:35.643Z,100448.13
2023-05-06T04:51:04.535Z,100435.31
2023-05-06T04:53:31.974Z,100441.59
2023-05-06T04:55:58.807Z,100437.22
2023-05-06T04:58:25.731Z,100444.31
2023-05-06T05:00:52.552Z,100444.97
2023-05-06T05:03:19.533Z,100438.34
2023-05-06T05:05:46.596Z,100438.72
2023-05-06T05:08:13.611Z,100436.87
2023-05-06T05:10:43.820Z,100441.91
2023-05-06T05:13:10.716Z,100437.72
2023-05-06T05:15:40.669Z,100431.19
2023-05-06T05:18:07.564Z,100444.56
2023-05-06T05:20:34.636Z,100438.13
2023-05-06T05:23:01.648Z,100444.19
2023-05-06T05:25:28.648Z,100436.75
2023-05-06T05:27:55.503Z,100434.13
2023-05-06T05:30:22.382Z,100439.12
2023-05-06T05:32:49.298Z,100430.63
2023-05-06T05:35:16.352Z,100429.63
2023-05-06T05:37:43.197Z,100438.97
2023-05-06T05:40:10.307Z,100441.84
2023-05-06T05:42:37.160Z,100439.34
2023-05-06T05:45:04.299Z,100440.94
2023-05-06T05:47:31.154Z,100440.53
2023-05-06T05:49:58.045Z,100437.16
2023-05-06T05:52:24.924Z,100441.84
2023-05-06T05:54:51.880Z,100448.91
2023-05-06T05:57:18.766Z,100448.62
2023-05-06T05:59:45.647Z,100439.50
2023-05-06T06:02:12.636Z,100444.69
2023-05-06T06:04:39.508Z,100438.81
2023-05-06T06:07:06.663Z,100441.16
2023-05-06T06:09:34.740Z,100449.06
2023-05-06T06:12:02.190Z,100435.56
2023-05-06T06:14:29.036Z,100446.78
2023-05-06T06:16:55.904Z,100440.22
2023-05-06T06:19:22.787Z,100449.88
2023-05-06T06:21:49.725Z,100441.94
2023-05-06T06:24:16.565Z,100447.44
2023-05-06T06:26:43.442Z,100446.22
2023-05-06T06:29:10.330Z,100447.84
2023-05-06T06:31:39.763Z,100441.50
2023-05-06T06:34:09.131Z,100448.72
2023-05-06T06:36:36.007Z,100438.81
2023-05-06T06:39:02.848Z,100447.91
2023-05-06T06:41:29.677Z,100446.87
2023-05-06T06:43:56.600Z,100447.88
2023-05-06T06:46:23.726Z,100447.78
2023-05-06T06:48:50.723Z,100439.12
2023-05-06T06:51:17.574Z,100439.91
2023-05-06T06:53:44.394Z,100442.34
2023-05-06T06:56:14.700Z,100443.38
2023-05-06T06:58:41.785Z,100438.38
2023-05-06T07:01:09.005Z,100442.53
2023-05-06T07:03:35.968Z,100446.16
2023-05-06T07:06:02.926Z,100445.59
2023-05-06T07:08:30.058Z,100444.31
2023-05-06T07:10:56.951Z,100441.97
2023-05-06T07:13:23.857Z,100445.47
2023-05-06T07:15:50.750Z,100434.47
2023-05-06T07:18:17.654Z,100434.50
2023-05-06T07:20:44.620Z,100427.37
2023-05-06T07:23:11.521Z,100438.03
2023-05-06T07:25:38.407Z,100436.31
2023-05-06T07:28:05.953Z,100440.75
2023-05-06T07:30:32.781Z,100428.59
2023-05-06T07:32:59.759Z,100432.25
2023-05-06T07:35:26.691Z,100434.13
2023-05-06T07:37:53.547Z,100427.31
2023-05-06T07:40:20.361Z,100435.16
2023-05-06T07:42:47.214Z,100438.28
2023-05-06T07:45:15.364Z,100437.81
2023-05-06T07:47:42.329Z,100432.84
2023-05-06T07:50:10.749Z,100438.03
2023-05-06T07:52:37.544Z,100439.06
2023-05-06T07:55:05.376Z,100442.62
2023-05-06T07:57:32.219Z,100447.09
2023-05-06T07:59:59.030Z,100451.06
2023-05-06T08:02:27.330Z,100445.81
2023-05-06T08:04:54.322Z,100442.72
2023-05-06T08:07:21.470Z,100436.75
2023-05-06T08:09:48.382Z,100442.81
2023-05-06T08:12:16.307Z,100445.81
2023-05-06T08:14:43.201Z,100451.03
2023-05-06T08:17:10.155Z,100444.91
2023-05-06T08:19:37.015Z,100428.38
2023-05-06T08:22:03.827Z,100436.94
2023-05-06T08:24:30.673Z,100434.19
2023-05-06T08:26:57.625Z,100436.81
2023-05-06T08:29:24.463Z,100436.34
2023-05-06T08:31:51.351Z,100438.00
2023-05-06T08:34:20.387Z,100438.00
2023-05-06T08:36:48.667Z,100442.38
2023-05-06T08:39:15.721Z,100436.75
2023-05-06T08:41:48.662Z,100448.72
2023-05-06T08:44:18.808Z,100446.91
2023-05-06T08:46:47.070Z,100452.53
2023-05-06T08:49:14.097Z,100440.28
2023-05-06T08:51:43.955Z,100438.00
2023-05-06T08:54:13.878Z,100434.50
2023-05-06T08:56:47.611Z,100437.16
2023-05-06T08:59:14.570Z,100427.06
2023-05-06T09:01:41.613Z,100434.13
2023-05-06T09:04:09.400Z,100426.59
2023-05-06T09:06:36.551Z,100420.25
2023-05-06T09:09:03.761Z,100423.91
2023-05-06T09:11:31.044Z,100421.97
2023-05-06T09:14:17.975Z,100418.50
2023-05-06T09:16:50.394Z,100419.19
2023-05-06T09:19:19.212Z,100419.47
2023-05-06T09:21:48.500Z,100413.31
2023-05-06T09:24:16.187Z,100414.50
2023-05-06T09:26:43.739Z,100422.97
2023-05-06T09:29:10.871Z,100419.41
2023-05-06T09:31:41.966Z,100416.81
2023-05-06T09:34:08.692Z,100411.47
2023-05-06T09:39:44.670Z,100407.91
2023-05-06T09:42:11.604Z,100415.28
2023-05-06T09:44:38.322Z,100415.06
2023-05-06T09:47:05.455Z,100407.06
2023-05-06T09:49:32.146Z,100396.31
2023-05-06T09:51:59.244Z,100396.63
2023-05-06T09:54:27.085Z,100401.97
2023-05-06T09:56:55.525Z,100403.31
2023-05-06T09:59:22.885Z,100410.47
2023-05-06T10:01:49.742Z,100394.84
2023-05-06T10:04:18.202Z,100401.88
2023-05-06T10:06:48.097Z,100392.87
2023-05-06T10:09:15.236Z,100397.78
2023-05-06T10:11:42.399Z,100393.41
2023-05-06T10:14:09.946Z,100390.13
2023-05-06T10:16:37.632Z,100388.28
2023-05-06T10:19:06.853Z,100393.75
2023-05-06T10:21:36.149Z,100383.66
2023-05-06T10:24:07.450Z,100384.19
2023-05-06T10:26:36.497Z,100381.22
2023-05-06T10:29:04.994Z,100378.72
2023-05-06T10:31:32.979Z,100374.06
2023-05-06T10:34:03.165Z,100371.75
2023-05-06T10:36:32.289Z,100371.88
2023-05-06T10:39:01.815Z,100367.72
2023-05-06T10:41:29.344Z,100361.06
2023-05-06T10:43:57.217Z,100361.25
2023-05-06T10:46:24.860Z,100374.06
2023-05-06T10:49:04.664Z,100362.22
2023-05-06T10:51:31.956Z,100363.06
2023-05-06T10:53:58.646Z,100364.75
2023-05-06T10:56:25.868Z,100358.50
2023-05-06T10:58:54.054Z,100359.94
2023-05-06T11:01:26.763Z,100351.88
2023-05-06T11:03:53.762Z,100355.06
2023-05-06T11:06:35.802Z,100362.97
2023-05-06T11:09:04.514Z,100357.28
2023-05-06T11:11:47.240Z,100353.50
2023-05-06T11:14:14.582Z,100355.22
2023-05-06T11:16:48.768Z,100352.94
2023-05-06T11:19:29.301Z,100346.56
2023-05-06T11:21:57.685Z,100350.09
2023-05-06T11:24:39.549Z,100356.44
2023-05-06T11:27:07.203Z,100350.34
2023-05-06T11:29:34.020Z,100354.28
2023-05-06T11:32:00.855Z,100349.66
2023-05-06T11:34:31.230Z,100349.19
2023-05-06T11:36:58.751Z,100348.87
2023-05-06T11:39:30.718Z,100350.59
2023-05-06T11:42:02.744Z,100350.78
2023-05-06T11:44:30.815Z,100349.19
2023-05-06T11:46:58.348Z,100342.09
2023-05-06T11:49:25.833Z,100346.16
2023-05-06T11:51:52.917Z,100340.28
2023-05-06T11:54:22.747Z,100342.44
2023-05-06T11:56:52.657Z,100342.09
2023-05-06T11:59:28.172Z,100335.78
2023-05-06T12:01:56.557Z,100341.13
2023-05-06T12:04:23.230Z,100339.88
2023-05-06T12:06:50.129Z,100342.50
2023-05-06T12:09:17.069Z,100333.59
2023-05-06T12:11:44.959Z,100339.03
2023-05-06T12:14:12.510Z,100337.38
2023-05-06T12:16:39.372Z,100338.34
2023-05-06T12:19:06.224Z,100336.28
2023-05-06T12:21:33.266Z,100336.22
2023-05-06T12:24:01.365Z,100335.37
2023-05-06T12:26:28.311Z,100332.56
2023-05-06T12:29:21.083Z,100324.31
2023-05-06T12:31:48.374Z,100317.84
2023-05-06T12:34:16.340Z,100317.09
2023-05-06T12:36:44.607Z,100313.91
2023-05-06T12:39:14.704Z,100315.19
2023-05-06T12:41:45.024Z,100306.56
2023-05-06T12:44:33.553Z,100307.78
2023-05-06T12:47:01.394Z,100304.63
2023-05-06T12:49:28.388Z,100301.28
2023-05-06T12:52:10.666Z,100295.06
2023-05-06T12:54:37.513Z,100289.81
2023-05-06T12:57:04.706Z,100300.16
2023-05-06T12:59:31.875Z,100300.16
2023-05-06T13:01:59.207Z,100287.94
2023-05-06T13:04:26.276Z,100281.63
2023-05-06T13:06:53.080Z,100287.53
2023-05-06T13:09:19.835Z,100283.03
2023-05-06T13:11:46.599Z,100279.84
2023-05-06T13:14:13.906Z,100278.38
2023-05-06T13:16:42.282Z,100284.09
2023-05-06T13:19:21.131Z,100282.44
2023-05-06T13:21:51.918Z,100272.31
2023-05-06T13:24:18.545Z,100275.97
2023-05-06T13:26:45.289Z,100275.56
2023-05-06T13:29:11.996Z,100265.34
2023-05-06T13:31:38.939Z,100270.53
2023-05-06T13:34:06.075Z,100263.69
2023-05-06T13:36:32.792Z,100253.44
2023-05-06T13:38:59.517Z,100247.69
2023-05-06T13:41:26.168Z,100247.16
2023-05-06T13:43:52.864Z,100245.69
2023-05-06T13:46:19.657Z,100240.72
2023-05-06T13:48:46.356Z,100244.91
2023-05-06T13:51:13.060Z,100243.59
2023-05-06T13:53:39.752Z,100233.81
2023-05-06T13:56:06.555Z,100236.34
2023-05-06T13:58:33.561Z,100230.22
2023-05-06T14:01:00.234Z,100221.50
2023-05-06T14:03:27.097Z,100221.00
2023-05-06T14:05:53.824Z,100223.25
2023-05-06T14:08:20.485Z,100220.00
2023-05-06T14:10:47.240Z,100216.44
2023-05-06T14:13:13.937Z,100218.75
2023-05-06T14:15:40.661Z,100214.09
2023-05-06T14:18:07.347Z,100206.72
2023-05-06T14:20:34.134Z,100204.69
2023-05-06T14:23:00.815Z,100207.06
2023-05-06T14:25:28.165Z,100202.28
2023-05-06T14:27:55.361Z,100209.56
2023-05-06T14:30:22.166Z,100214.94
2023-05-06T14:32:49.059Z,100213.59
2023-05-06T14:35:15.925Z,100211.09
2023-05-06T14:37:42.651Z,100211.91
2023-05-06T14:40:10.253Z,100208.19
2023-05-06T14:42:37.195Z,100213.84
2023-05-06T14:45:04.198Z,100200.84
2023-05-06T14:47:30.946Z,100209.16
2023-05-06T14:49:57.640Z,100211.78
2023-05-06T14:52:24.358Z,100209.09
2023-05-06T14:54:51.024Z,100204.53
2023-05-06T14:57:17.743Z,100215.12
2023-05-06T14:59:44.393Z,100216.91
2023-05-06T15:02:11.309Z,100215.94
2023-05-06T15:04:38.024Z,100216.41
2023-05-06T15:07:04.699Z,100220.31
2023-05-06T15:09:31.527Z,100218.38
2023-05-06T15:11:58.278Z,100224.06
2023-05-06T15:14:24.949Z,100224.16
2023-05-06T15:16:52.886Z,100224.91
2023-05-06T15:19:19.621Z,100227.59
2023-05-06T15:21:46.601Z,100233.91
2023-05-06T15:24:13.291Z,100235.09
2023-05-06T15:26:39.978Z,100240.72
2023-05-06T15:29:07.468Z,100236.34
2023-05-06T15:31:39.113Z,100229.12
2023-05-06T15:34:06.617Z,100233.22
2023-05-06T15:36:33.284Z,100236.06
2023-05-06T15:39:01.018Z,100231.66
2023-05-06T15:41:32.017Z,100236.22
2023-05-06T15:43:59.369Z,100251.88
2023-05-06T15:46:26.916Z,100253.78
2023-05-06T15:49:09.025Z,100244.84
2023-05-06T15:51:40.478Z,100254.03
2023-05-06T15:54:07.133Z,100246.12
2023-05-06T15:56:39.372Z,100243.03
2023-05-06T15:59:08.498Z,100256.16
2023-05-06T16:02:04.871Z,100263.53
2023-05-06T16:04:22.119Z,100261.22
2023-05-06T16:06:49.098Z,100259.72
2023-05-06T16:09:15.848Z,100260.72
2023-05-06T16:11:42.532Z,100258.44
2023-05-06T16:14:09.187Z,100261.66
2023-05-06T16:16:36.037Z,100253.50
2023-05-06T16:19:02.837Z,100257.81
2023-05-06T16:21:29.522Z,100252.88
2023-05-06T16:23:56.174Z,100250.78
2023-05-06T16:26:23.025Z,100242.25
2023-05-06T16:28:49.680Z,100232.59
2023-05-06T16:31:16.405Z,100227.34
2023-05-06T16:33:43.153Z,100223.25
2023-05-06T16:36:09.833Z,100226.81
2023-05-06T16:38:36.671Z,100235.72
2023-05-06T16:41:03.514Z,100240.97
2023-05-06T16:43:30.192Z,100258.19
2023-05-06T16:45:56.868Z,100263.50
2023-05-06T16:48:23.608Z,100264.53
2023-05-06T16:50:50.315Z,100272.88
2023-05-06T16:53:17.693Z,100261.03
2023-05-06T16:55:49.222Z,100254.56
2023-05-06T16:58:16.036Z,100249.25
2023-05-06T17:00:42.854Z,100244.47
2023-05-06T17:03:09.973Z,100242.03
2023-05-06T17:05:37.022Z,100231.62
2023-05-06T17:08:04.127Z,100229.31
2023-05-06T17:10:30.957Z,100235.53
2023-05-06T17:12:57.766Z,100225.41
2023-05-06T17:15:25.119Z,100219.38
2023-05-06T17:17:52.040Z,100219.56
2023-05-06T17:20:20.151Z,100221.25
2023-05-06T17:22:47.017Z,100225.66
2023-05-06T17:25:13.789Z,100235.47
2023-05-06T17:27:40.540Z,100234.63
2023-05-06T17:30:09.826Z,100240.50
2023-05-06T17:32:36.784Z,100237.06
2023-05-06T17:35:03.747Z,100241.84
2023-05-06T17:37:31.104Z,100230.37
2023-05-06T17:39:58.084Z,100234.41
2023-05-06T17:42:24.797Z,100243.09
2023-05-06T17:44:51.441Z,100251.56
2023-05-06T17:47:18.174Z,100254.88
2023-05-06T17:49:45.804Z,100256.97
2023-05-06T17:52:12.463Z,100257.97
2023-05-06T17:54:39.205Z,100257.13
2023-05-06T17:57:05.951Z,100253.66
2023-05-06T17:59:32.773Z,100251.97
2023-05-06T18:02:00.486Z,100258.56
2023-05-06T18:04:27.207Z,100260.09
2023-05-06T18:06:53.839Z,100265.75
2023-05-06T18:09:20.624Z,100272.06
2023-05-06T18:11:47.403Z,100273.84
2023-05-06T18:14:14.974Z,100273.66
2023-05-06T18:16:42.161Z,100280.47
2023-05-06T18:19:08.949Z,100274.97
2023-05-06T18:21:36.162Z,100280.81
2023-05-06T18:24:15.372Z,100289.09
2023-05-06T18:26:44.689Z,100285.34
2023-05-06T18:29:12.600Z,100301.69
2023-05-06T18:31:39.776Z,100301.91
2023-05-06T18:34:06.557Z,100302.31
2023-05-06T18:36:35.196Z,100307.22
2023-05-06T18:39:02.142Z,100309.25
2023-05-06T18:41:28.869Z,100313.59
2023-05-06T18:43:55.522Z,100324.00
2023-05-06T18:46:22.683Z,100333.06
2023-05-06T18:48:49.391Z,100337.06
2023-05-06T18:51:17.522Z,100345.06
2023-05-06T18:53:45.038Z,100350.34
2023-05-06T18:56:12.087Z,100347.31
2023-05-06T18:58:39.320Z,100349.31
2023-05-06T19:01:09.872Z,100356.88
2023-05-06T19:03:37.586Z,100350.84
2023-05-06T19:06:05.580Z,100350.09
2023-05-06T19:08:32.443Z,100356.03
2023-05-06T19:10:59.397Z,100366.16
2023-05-06T19:13:26.140Z,100365.97
2023-05-06T19:15:52.810Z,100357.84
2023-05-06T19:18:19.509Z,100369.00
2023-05-06T19:20:46.514Z,100366.63
2023-05-06T19:23:13.169Z,100366.19
2023-05-06T19:25:40.058Z,100358.91
2023-05-06T19:28:06.801Z,100377.84
2023-05-06T19:30:34.579Z,100383.84
2023-05-06T19:33:02.203Z,100380.56
2023-05-06T19:35:29.009Z,100383.41
2023-05-06T19:37:56.267Z,100387.56
2023-05-06T19:40:22.979Z,100383.56
2023-05-06T19:42:49.761Z,100383.66
2023-05-06T19:45:17.461Z,100379.44
2023-05-06T19:47:45.852Z,100371.16
2023-05-06T19:50:13.237Z,100385.56
2023-05-06T19:52:40.325Z,100385.53
2023-05-06T19:55:07.448Z,100380.88
2023-05-06T19:57:34.281Z,100387.97
2023-05-06T20:00:05.456Z,100390.19
2023-05-06T20:02:33.039Z,100395.31
2023-05-06T20:05:00.730Z,100392.69
2023-05-06T20:07:27.577Z,100389.63
2023-05-06T20:09:56.100Z,100391.84
2023-05-06T20:12:30.381Z,100380.22
2023-05-06T20:14:57.069Z,100388.31
2023-05-06T20:17:23.969Z,100394.69
2023-05-06T20:19:50.850Z,100401.59
2023-05-06T20:22:17.495Z,100392.69
2023-05-06T20:24:44.889Z,100389.50
2023-05-06T20:27:11.572Z,100386.50
2023-05-06T20:29:38.285Z,100384.28
2023-05-06T20:32:05.275Z,100381.38
2023-05-06T20:34:32.208Z,100380.88
2023-05-06T20:36:59.984Z,100391.31
2023-05-06T20:39:26.651Z,100381.84
2023-05-06T20:41:53.325Z,100383.41
2023-05-06T20:44:19.990Z,100384.28
2023-05-06T20:46:46.644Z,100378.31
2023-05-06T20:49:13.352Z,100379.66
2023-05-06T20:51:39.983Z,100374.25
2023-05-06T20:54:06.630Z,100387.97
2023-05-06T20:56:33.278Z,100392.53
2023-05-06T20:58:59.985Z,100391.19
2023-05-06T21:01:27.132Z,100400.75
2023-05-06T21:03:54.005Z,100396.91
2023-05-06T21:06:20.787Z,100394.16
2023-05-06T21:08:47.613Z,100400.72
2023-05-06T21:13:41.003Z,100396.94
2023-05-06T21:16:08.135Z,100402.59
2023-05-06T21:18:35.133Z,100398.53
2023-05-06T21:21:02.072Z,100392.84
2023-05-06T21:23:28.727Z,100398.22
2023-05-06T21:25:55.418Z,100402.84
2023-05-06T21:28:22.169Z,100409.22
2023-05-06T21:30:48.837Z,100401.94
2023-05-06T21:33:15.605Z,100403.94
2023-05-06T21:35:42.296Z,100398.44
2023-05-06T21:38:08.956Z,100401.50
2023-05-06T21:40:35.743Z,100392.97
2023-05-06T21:43:02.833Z,100407.13
2023-05-06T21:45:29.532Z,100399.00
2023-05-06T21:47:56.209Z,100398.84
2023-05-06T21:50:22.899Z,100406.69
2023-05-06T21:52:49.513Z,100404.19
2023-05-06T21:55:16.219Z,100410.69
2023-05-06T21:57:44.539Z,100414.06
2023-05-06T22:00:12.513Z,100406.66
2023-05-06T22:02:40.254Z,100406.53
2023-05-06T22:05:08.159Z,100400.56
2023-05-06T22:07:35.971Z,100412.91
2023-05-06T22:10:03.056Z,100412.44
2023-05-06T22:12:30.292Z,100409.38
2023-05-06T22:14:57.128Z,100408.12
2023-05-06T22:17:24.369Z,100410.13
2023-05-06T22:19:51.957Z,100405.72
2023-05-06T22:22:19.193Z,100406.87
2023-05-06T22:24:46.097Z,100411.84
2023-05-06T22:27:12.781Z,100416.66
2023-05-06T22:29:39.728Z,100416.00
2023-05-06T22:32:06.559Z,100413.47
2023-05-06T22:34:33.258Z,100411.62
2023-05-06T22:37:00.979Z,100410.28
2023-05-06T22:39:28.041Z,100404.00
2023-05-06T22:41:54.695Z,100399.37
2023-05-06T22:44:21.540Z,100399.75
2023-05-06T22:46:48.185Z,100398.28
2023-05-06T22:49:16.054Z,100394.78
2023-05-06T22:51:42.867Z,100393.44
2023-05-06T22:54:09.549Z,100390.69
2023-05-06T22:56:36.238Z,100389.06
2023-05-06T22:59:03.057Z,100392.41
2023-05-06T23:01:32.527Z,100388.91
2023-05-06T23:03:59.687Z,100386.88
2023-05-06T23:06:31.092Z,100391.34
2023-05-06T23:08:58.016Z,100390.25
2023-05-06T23:11:24.866Z,100377.16
2023-05-06T23:13:51.638Z,100384.75
2023-05-06T23:16:18.445Z,100379.69
2023-05-06T23:18:45.911Z,100376.25
2023-05-06T23:23:47.859Z,100382.19
2023-05-06T23:26:14.600Z,100386.75
2023-05-06T23:28:41.330Z,100382.41
2023-05-06T23:31:08.124Z,100376.03
2023-05-06T23:33:34.814Z,100373.25
2023-05-06T23:36:02.676Z,100375.34
2023-05-06T23:38:30.422Z,100372.16
2023-05-06T23:40:57.169Z,100367.06
2023-05-06T23:43:23.976Z,100366.09
2023-05-06T23:45:50.801Z,100372.97
2023-05-06T23:48:17.694Z,100376.03
2023-05-06T23:50:44.505Z,100380.13
2023-05-06T23:53:11.506Z,100375.06
2023-05-06T23:55:38.622Z,100372.34
2023-05-06T23:58:05.379Z,100374.75
